createdAt,value
2019-04-20T00:00:09.999Z,9.18
2019-04-20T00:02:35.829Z,8.97
2019-04-20T00:05:05.307Z,8.87
2019-04-20T00:07:35.605Z,8.82
2019-04-20T00:10:09.627Z,8.74
2019-04-20T00:12:39.446Z,8.72
2019-04-20T00:14:58.650Z,8.55
2019-04-20T00:17:26.734Z,8.34
2019-04-20T00:19:57.037Z,8.35
2019-04-20T00:22:37.175Z,8.51
2019-04-20T00:25:15.820Z,8.53
2019-04-20T00:28:22.428Z,8.59
2019-04-20T00:30:51.328Z,8.60
2019-04-20T00:33:07.334Z,8.59
2019-04-20T00:35:27.190Z,8.42
2019-04-20T00:37:54.915Z,8.26
2019-04-20T00:40:22.115Z,8.12
2019-04-20T00:42:53.339Z,7.99
2019-04-20T00:45:23.487Z,7.88
2019-04-20T00:47:54.256Z,7.81
2019-04-20T00:50:28.277Z,7.73
2019-04-20T00:52:54.914Z,7.70
2019-04-20T00:55:12.807Z,7.75
2019-04-20T00:57:48.547Z,7.64
2019-04-20T01:00:27.145Z,7.52
2019-04-20T01:02:52.207Z,7.50
2019-04-20T01:05:29.898Z,7.41
2019-04-20T01:08:02.148Z,7.28
2019-04-20T01:10:28.329Z,7.23
2019-04-20T01:13:57.385Z,7.37
2019-04-20T01:16:29.711Z,7.48
2019-04-20T01:18:48.119Z,7.49
2019-04-20T01:21:21.170Z,7.42
2019-04-20T01:23:50.794Z,7.26
2019-04-20T01:26:17.197Z,6.99
2019-04-20T01:28:55.147Z,6.88
2019-04-20T01:31:18.722Z,6.91
2019-04-20T01:33:50.623Z,6.93
2019-04-20T01:36:25.454Z,6.94
2019-04-20T01:38:55.375Z,6.94
2019-04-20T01:41:05.402Z,6.84
2019-04-20T01:43:33.355Z,6.78
2019-04-20T01:46:07.898Z,6.74
2019-04-20T01:48:33.600Z,6.72
2019-04-20T01:51:04.803Z,6.64
2019-04-20T01:53:47.942Z,6.54
2019-04-20T01:56:13.720Z,6.46
2019-04-20T01:59:05.064Z,6.41
2019-04-20T02:01:27.459Z,6.32
2019-04-20T02:04:21.350Z,6.27
2019-04-20T02:06:48.105Z,6.23
2019-04-20T02:09:15.037Z,6.19
2019-04-20T02:11:42.711Z,6.21
2019-04-20T02:14:10.248Z,6.28
2019-04-20T02:16:42.509Z,6.43
2019-04-20T02:19:19.635Z,6.51
2019-04-20T02:21:54.199Z,6.43
2019-04-20T02:24:09.328Z,6.43
2019-04-20T02:26:35.042Z,6.46
2019-04-20T02:29:27.079Z,6.33
2019-04-20T02:32:10.085Z,6.30
2019-04-20T02:39:58.240Z,6.23
2019-04-20T02:42:14.374Z,6.37
2019-04-20T02:44:42.335Z,6.48
2019-04-20T02:47:11.652Z,6.41
2019-04-20T02:52:13.524Z,6.22
2019-04-20T02:54:26.027Z,6.00
2019-04-20T03:01:45.642Z,5.84
2019-04-20T03:03:58.478Z,5.81
2019-04-20T03:06:36.300Z,5.80
2019-04-20T03:09:17.236Z,5.73
2019-04-20T03:11:53.983Z,5.69
2019-04-20T03:14:09.231Z,5.73
2019-04-20T03:16:37.256Z,5.66
2019-04-20T03:19:02.915Z,5.61
2019-04-20T03:21:37.930Z,5.52
2019-04-20T03:24:17.386Z,5.52
2019-04-20T03:26:54.290Z,5.47
2019-04-20T03:29:24.170Z,5.35
2019-04-20T03:34:54.975Z,5.21
2019-04-20T03:37:07.108Z,5.20
2019-04-20T03:39:28.896Z,5.01
2019-04-20T03:41:44.452Z,5.01
2019-04-20T03:44:12.574Z,5.03
2019-04-20T03:46:45.589Z,5.02
2019-04-20T03:49:36.944Z,5.04
2019-04-20T03:51:57.329Z,4.91
2019-04-20T03:54:26.389Z,4.78
2019-04-20T03:57:17.001Z,4.79
2019-04-20T03:59:55.059Z,4.78
2019-04-20T04:02:54.215Z,4.71
2019-04-20T04:05:23.558Z,4.69
2019-04-20T04:08:06.246Z,4.67
2019-04-20T04:10:40.973Z,4.71
2019-04-20T04:13:09.350Z,4.66
2019-04-20T04:15:46.805Z,4.67
2019-04-20T04:18:17.214Z,4.79
2019-04-20T04:20:49.236Z,4.98
2019-04-20T04:23:32.727Z,5.02
2019-04-20T04:25:58.148Z,5.05
2019-04-20T04:28:27.322Z,5.13
2019-04-20T04:30:59.982Z,5.25
2019-04-20T04:33:50.574Z,5.20
2019-04-20T04:35:53.809Z,5.25
2019-04-20T04:38:33.487Z,5.29
2019-04-20T04:41:06.476Z,5.38
2019-04-20T04:43:25.715Z,5.43
2019-04-20T04:45:36.979Z,5.44
2019-04-20T04:50:44.577Z,5.46
2019-04-20T04:53:13.410Z,5.41
2019-04-20T04:55:43.957Z,5.43
2019-04-20T04:58:04.377Z,5.47
2019-04-20T05:00:34.197Z,5.57
2019-04-20T05:03:22.125Z,5.67
2019-04-20T05:06:13.412Z,5.86
2019-04-20T05:08:34.511Z,6.10
2019-04-20T05:10:56.215Z,6.39
2019-04-20T05:13:26.841Z,6.61
2019-04-20T05:16:11.038Z,6.76
2019-04-20T05:18:44.747Z,6.90
2019-04-20T05:21:30.317Z,7.07
2019-04-20T05:24:20.749Z,7.32
2019-04-20T05:27:03.042Z,7.57
2019-04-20T05:29:13.399Z,7.91
2019-04-20T05:31:42.368Z,8.21
2019-04-20T05:34:26.299Z,8.45
2019-04-20T05:36:57.980Z,8.49
2019-04-20T05:39:36.770Z,8.55
2019-04-20T05:41:58.080Z,8.79
2019-04-20T05:44:38.956Z,8.92
2019-04-20T05:47:06.933Z,8.98
2019-04-20T05:49:29.755Z,9.07
2019-04-20T05:52:18.099Z,9.23
2019-04-20T05:54:38.835Z,9.53
2019-04-20T05:57:17.160Z,9.87
2019-04-20T05:59:49.394Z,10.28
2019-04-20T06:02:09.739Z,10.64
2019-04-20T06:04:54.355Z,11.09
2019-04-20T06:07:12.427Z,11.38
2019-04-20T06:09:33.940Z,11.65
2019-04-20T06:12:16.238Z,11.93
2019-04-20T06:14:46.810Z,12.03
2019-04-20T06:17:39.665Z,12.38
2019-04-20T06:20:12.133Z,12.81
2019-04-20T06:22:41.748Z,13.28
2019-04-20T06:25:31.859Z,13.59
2019-04-20T06:27:48.040Z,13.77
2019-04-20T06:30:06.906Z,13.89
2019-04-20T06:33:34.270Z,14.11
2019-04-20T06:36:07.812Z,14.26
2019-04-20T06:38:38.680Z,14.46
2019-04-20T06:41:00.793Z,14.63
2019-04-20T06:43:19.708Z,14.66
2019-04-20T06:45:54.092Z,14.96
2019-04-20T06:48:21.479Z,15.23
2019-04-20T06:50:44.401Z,15.43
2019-04-20T06:53:31.878Z,15.52
2019-04-20T06:56:06.610Z,15.89
2019-04-20T06:58:43.888Z,16.03
2019-04-20T07:01:09.305Z,16.23
2019-04-20T07:03:51.340Z,16.65
2019-04-20T07:06:20.889Z,16.66
2019-04-20T07:08:58.699Z,17.00
2019-04-20T07:11:04.318Z,16.91
2019-04-20T07:13:22.003Z,17.07
2019-04-20T07:16:21.133Z,17.03
2019-04-20T07:19:17.234Z,16.79
2019-04-20T07:22:13.479Z,17.17
2019-04-20T07:24:32.780Z,17.47
2019-04-20T07:26:55.843Z,17.42
2019-04-20T07:29:26.047Z,17.66
2019-04-20T07:31:50.045Z,18.32
2019-04-20T07:34:23.022Z,18.31
2019-04-20T07:37:19.360Z,18.76
2019-04-20T07:39:26.414Z,19.06
2019-04-20T07:41:54.653Z,19.15
2019-04-20T07:44:28.007Z,19.04
2019-04-20T07:49:18.151Z,18.83
2019-04-20T07:51:33.884Z,18.94
2019-04-20T07:54:30.348Z,19.07
2019-04-20T07:56:53.971Z,19.22
2019-04-20T07:59:14.032Z,19.37
2019-04-20T08:02:08.251Z,19.71
2019-04-20T08:04:36.753Z,19.58
2019-04-20T08:06:57.891Z,20.01
2019-04-20T08:09:29.179Z,19.62
2019-04-20T08:12:18.264Z,19.58
2019-04-20T08:14:49.074Z,19.56
2019-04-20T08:17:28.957Z,19.99
2019-04-20T08:19:45.404Z,20.55
2019-04-20T08:22:19.844Z,20.68
2019-04-20T08:24:44.175Z,20.27
2019-04-20T08:27:07.613Z,20.85
2019-04-20T08:29:48.443Z,20.67
2019-04-20T08:32:36.442Z,20.45
2019-04-20T08:35:05.640Z,20.88
2019-04-20T08:37:38.032Z,20.99
2019-04-20T08:40:08.816Z,20.94
2019-04-20T08:42:38.066Z,21.63
2019-04-20T08:45:08.380Z,22.00
2019-04-20T08:50:09.432Z,22.22
2019-04-20T08:52:55.529Z,22.91
2019-04-20T08:55:07.635Z,22.21
2019-04-20T08:57:15.771Z,22.29
2019-04-20T08:59:48.242Z,22.66
2019-04-20T09:02:19.122Z,22.98
2019-04-20T09:04:59.145Z,23.03
2019-04-20T09:07:26.287Z,22.94
2019-04-20T09:10:16.646Z,23.55
2019-04-20T09:12:35.505Z,22.97
2019-04-20T09:14:49.006Z,23.18
2019-04-20T09:17:41.150Z,23.44
2019-04-20T09:20:10.681Z,23.87
2019-04-20T09:23:02.478Z,23.80
2019-04-20T09:28:20.075Z,23.74
2019-04-20T09:30:50.515Z,23.36
2019-04-20T09:33:51.696Z,23.36
2019-04-20T09:36:22.558Z,23.26
2019-04-20T09:39:08.384Z,23.60
2019-04-20T09:41:58.953Z,23.46
2019-04-20T09:44:09.172Z,23.57
2019-04-20T09:46:40.363Z,23.46
2019-04-20T09:49:15.671Z,23.46
2019-04-20T09:51:51.142Z,23.50
2019-04-20T09:54:26.736Z,23.69
2019-04-20T09:56:55.351Z,23.90
2019-04-20T09:59:26.994Z,24.04
2019-04-20T10:01:40.244Z,23.97
2019-04-20T10:04:01.393Z,23.79
2019-04-20T10:06:33.890Z,23.94
2019-04-20T10:09:01.866Z,24.19
2019-04-20T10:11:27.653Z,24.12
2019-04-20T10:13:54.701Z,23.76
2019-04-20T10:16:22.011Z,24.31
2019-04-20T10:18:53.262Z,25.01
2019-04-20T10:21:20.105Z,24.98
2019-04-20T10:23:48.281Z,25.43
2019-04-20T10:26:16.444Z,25.81
2019-04-20T10:28:43.829Z,25.78
2019-04-20T10:31:12.829Z,25.06
2019-04-20T10:33:39.787Z,24.91
2019-04-20T10:36:09.821Z,24.94
2019-04-20T10:38:37.729Z,24.94
2019-04-20T10:41:13.230Z,24.81
2019-04-20T10:43:35.062Z,24.20
2019-04-20T10:46:02.811Z,24.25
2019-04-20T10:48:33.962Z,24.89
2019-04-20T10:51:01.077Z,24.82
2019-04-20T10:53:28.104Z,24.70
2019-04-20T10:55:55.742Z,25.49
2019-04-20T10:58:22.556Z,25.34
2019-04-20T11:00:50.105Z,25.35
2019-04-20T11:03:19.735Z,25.56
2019-04-20T11:05:46.896Z,25.55
2019-04-20T11:08:14.875Z,25.38
2019-04-20T11:10:55.484Z,25.29
2019-04-20T11:13:27.689Z,25.11
2019-04-20T11:15:55.170Z,25.28
2019-04-20T11:18:22.028Z,25.22
2019-04-20T11:20:49.153Z,25.49
2019-04-20T11:23:16.182Z,26.28
2019-04-20T11:25:44.455Z,26.47
2019-04-20T11:28:12.367Z,26.39
2019-04-20T11:30:40.414Z,26.09
2019-04-20T11:33:07.164Z,26.35
2019-04-20T11:35:38.095Z,26.85
2019-04-20T11:38:03.263Z,27.02
2019-04-20T11:40:30.828Z,27.24
2019-04-20T11:42:57.598Z,26.68
2019-04-20T11:45:24.744Z,26.80
2019-04-20T11:47:51.667Z,26.27
2019-04-20T11:50:19.848Z,26.33
2019-04-20T11:52:49.419Z,26.45
2019-04-20T11:55:16.021Z,26.21
2019-04-20T11:57:43.172Z,26.45
2019-04-20T12:00:13.559Z,26.00
2019-04-20T12:03:09.801Z,25.57
2019-04-20T12:05:37.561Z,25.77
2019-04-20T12:08:00.904Z,26.06
2019-04-20T12:10:29.600Z,26.34
2019-04-20T12:12:59.517Z,26.91
2019-04-20T12:15:26.623Z,26.88
2019-04-20T12:17:53.710Z,26.14
2019-04-20T12:20:20.950Z,26.50
2019-04-20T12:22:48.391Z,26.64
2019-04-20T12:25:18.290Z,26.66
2019-04-20T12:27:49.659Z,26.24
2019-04-20T12:30:15.288Z,26.22
2019-04-20T12:32:46.685Z,25.81
2019-04-20T12:35:12.070Z,25.92
2019-04-20T12:37:39.095Z,26.27
2019-04-20T12:40:07.170Z,26.74
2019-04-20T12:42:34.861Z,26.21
2019-04-20T12:45:01.786Z,26.15
2019-04-20T12:47:29.995Z,26.13
2019-04-20T12:49:57.222Z,26.74
2019-04-20T12:52:23.855Z,26.05
2019-04-20T12:54:50.951Z,26.00
2019-04-20T12:57:18.593Z,26.02
2019-04-20T12:59:47.233Z,25.84
2019-04-20T13:02:15.632Z,25.53
2019-04-20T13:04:43.562Z,25.63
2019-04-20T13:07:10.474Z,25.82
2019-04-20T13:09:44.620Z,26.28
2019-04-20T13:12:22.040Z,26.15
2019-04-20T13:15:26.583Z,26.15
2019-04-20T13:17:54.314Z,25.52
2019-04-20T13:20:22.166Z,26.23
2019-04-20T13:22:50.918Z,25.83
2019-04-20T13:25:19.003Z,25.89
2019-04-20T13:27:47.038Z,25.49
2019-04-20T13:30:14.379Z,25.69
2019-04-20T13:32:41.560Z,25.41
2019-04-20T13:35:08.417Z,25.28
2019-04-20T13:37:37.208Z,25.21
2019-04-20T13:40:04.913Z,25.00
2019-04-20T13:42:35.208Z,24.86
2019-04-20T13:45:03.066Z,24.68
2019-04-20T13:47:34.838Z,24.82
2019-04-20T13:50:03.643Z,24.73
2019-04-20T13:52:30.970Z,24.49
2019-04-20T13:54:58.079Z,24.04
2019-04-20T13:57:31.688Z,24.20
2019-04-20T14:00:00.101Z,24.35
2019-04-20T14:02:36.651Z,24.07
2019-04-20T14:05:04.991Z,24.32
2019-04-20T14:07:33.459Z,24.10
2019-04-20T14:10:01.788Z,24.02
2019-04-20T14:12:35.354Z,23.66
2019-04-20T14:14:57.458Z,23.27
2019-04-20T14:17:25.220Z,23.04
2019-04-20T14:19:54.792Z,23.12
2019-04-20T14:22:22.949Z,23.27
2019-04-20T14:24:51.085Z,23.22
2019-04-20T14:27:19.043Z,23.05
2019-04-20T14:29:46.398Z,23.12
2019-04-20T14:32:14.764Z,23.20
2019-04-20T14:34:43.043Z,23.12
2019-04-20T14:37:11.395Z,23.01
2019-04-20T14:39:38.778Z,22.83
2019-04-20T14:42:06.611Z,22.70
2019-04-20T14:44:34.029Z,22.79
2019-04-20T14:47:03.616Z,22.35
2019-04-20T14:49:32.643Z,22.05
2019-04-20T14:52:01.527Z,21.94
2019-04-20T14:54:29.706Z,22.08
2019-04-20T14:57:03.665Z,21.99
2019-04-20T14:59:37.848Z,22.09
2019-04-20T15:02:08.642Z,22.05
2019-04-20T15:04:38.962Z,21.97
2019-04-20T15:07:06.734Z,21.90
2019-04-20T15:09:36.899Z,21.94
2019-04-20T15:12:02.904Z,21.99
2019-04-20T15:14:32.380Z,22.14
2019-04-20T15:17:00.579Z,22.01
2019-04-20T15:19:43.268Z,22.14
2019-04-20T15:22:31.871Z,21.95
2019-04-20T15:24:59.990Z,21.80
2019-04-20T15:27:28.172Z,21.76
2019-04-20T15:29:56.284Z,21.78
2019-04-20T15:32:25.018Z,21.70
2019-04-20T15:34:53.010Z,21.81
2019-04-20T15:37:20.636Z,21.79
2019-04-20T15:39:47.470Z,21.76
2019-04-20T15:42:19.185Z,21.43
2019-04-20T15:44:47.339Z,21.24
2019-04-20T15:47:15.371Z,21.25
2019-04-20T15:49:42.374Z,21.19
2019-04-20T15:52:13.562Z,21.18
2019-04-20T15:54:38.713Z,21.08
2019-04-20T15:57:12.768Z,21.09
2019-04-20T15:59:34.783Z,21.10
2019-04-20T16:02:13.558Z,21.06
2019-04-20T16:04:56.373Z,20.96
2019-04-20T16:07:25.497Z,20.93
2019-04-20T16:09:52.734Z,20.74
2019-04-20T16:12:20.715Z,20.73
2019-04-20T16:14:49.332Z,20.74
2019-04-20T16:20:15.704Z,20.72
2019-04-20T16:22:40.538Z,20.62
2019-04-20T16:25:21.435Z,20.59
2019-04-20T16:27:48.064Z,20.55
2019-04-20T16:30:15.767Z,20.52
2019-04-20T16:32:44.806Z,20.51
2019-04-20T16:35:11.853Z,20.44
2019-04-20T16:37:40.052Z,20.43
2019-04-20T16:40:09.746Z,20.38
2019-04-20T16:42:40.963Z,20.31
2019-04-20T16:45:09.483Z,20.27
2019-04-20T16:47:36.742Z,20.16
2019-04-20T16:50:06.775Z,20.04
2019-04-20T16:52:34.783Z,20.00
2019-04-20T16:55:02.125Z,20.00
2019-04-20T16:57:31.891Z,19.83
2019-04-20T16:59:59.922Z,19.79
2019-04-20T17:02:27.724Z,19.70
2019-04-20T17:04:55.400Z,19.68
2019-04-20T17:07:33.099Z,19.58
2019-04-20T17:10:00.109Z,19.50
2019-04-20T17:12:28.053Z,19.38
2019-04-20T17:14:55.850Z,19.27
2019-04-20T17:17:22.812Z,19.18
2019-04-20T17:19:49.487Z,19.08
2019-04-20T17:22:17.299Z,19.06
2019-04-20T17:35:23.257Z,18.69
2019-04-20T17:37:41.681Z,18.65
2019-04-20T17:40:30.143Z,18.53
2019-04-20T17:42:50.775Z,18.40
2019-04-20T17:45:14.023Z,18.25
2019-04-20T17:47:55.962Z,18.08
2019-04-20T17:50:24.061Z,18.00
2019-04-20T17:52:53.875Z,17.92
2019-04-20T17:55:22.239Z,17.78
2019-04-20T17:57:37.707Z,17.62
2019-04-20T18:00:15.352Z,17.58
2019-04-20T18:03:06.170Z,17.50
2019-04-20T18:05:39.407Z,17.42
2019-04-20T18:08:12.004Z,17.33
2019-04-20T18:10:31.305Z,17.25
2019-04-20T18:12:48.467Z,17.13
2019-04-20T18:15:31.330Z,17.04
2019-04-20T18:18:25.885Z,16.93
2019-04-20T18:20:56.915Z,16.82
2019-04-20T18:23:33.268Z,16.70
2019-04-20T18:26:10.518Z,16.65
2019-04-20T18:28:39.988Z,16.56
2019-04-20T18:31:03.414Z,16.48
2019-04-20T18:33:33.069Z,16.35
2019-04-20T18:36:00.438Z,16.14
2019-04-20T18:38:31.652Z,15.98
2019-04-20T18:41:02.622Z,15.88
2019-04-20T18:43:27.480Z,15.86
2019-04-20T18:46:14.539Z,15.86
2019-04-20T18:48:45.178Z,15.86
2019-04-20T18:50:50.755Z,15.94
2019-04-20T18:53:28.744Z,15.88
2019-04-20T18:55:53.756Z,15.81
2019-04-20T18:58:15.629Z,15.72
2019-04-20T19:00:47.304Z,15.59
2019-04-20T19:03:18.294Z,15.43
2019-04-20T19:05:39.921Z,15.40
2019-04-20T19:08:13.585Z,15.33
2019-04-20T19:10:41.753Z,15.27
2019-04-20T19:13:20.200Z,15.29
2019-04-20T19:16:06.841Z,15.32
2019-04-20T19:18:45.228Z,15.34
2019-04-20T19:21:03.466Z,15.35
2019-04-20T19:23:30.217Z,15.36
2019-04-20T19:26:02.509Z,15.33
2019-04-20T19:28:30.614Z,15.34
2019-04-20T19:31:08.746Z,15.33
2019-04-20T19:33:40.303Z,15.19
2019-04-20T19:35:59.736Z,14.96
2019-04-20T19:38:29.454Z,14.94
2019-04-20T19:40:58.372Z,14.85
2019-04-20T19:43:26.685Z,14.71
2019-04-20T19:46:29.682Z,14.58
2019-04-20T19:48:29.597Z,14.58
2019-04-20T19:51:06.962Z,14.42
2019-04-20T19:53:33.555Z,14.30
2019-04-20T19:55:53.022Z,14.27
2019-04-20T19:58:22.133Z,14.36
2019-04-20T20:00:51.265Z,14.44
2019-04-20T20:03:15.593Z,14.54
2019-04-20T20:05:46.324Z,14.51
2019-04-20T20:08:15.587Z,14.38
2019-04-20T20:10:42.585Z,14.30
2019-04-20T20:13:09.966Z,14.31
2019-04-20T20:15:39.507Z,14.27
2019-04-20T20:18:23.126Z,14.19
2019-04-20T20:20:52.662Z,14.14
2019-04-20T20:23:03.761Z,14.14
2019-04-20T20:25:37.104Z,14.07
2019-04-20T20:28:13.367Z,14.06
2019-04-20T20:30:36.490Z,14.10
2019-04-20T20:33:11.508Z,14.16
2019-04-20T20:35:27.690Z,13.90
2019-04-20T20:37:58.901Z,13.86
2019-04-20T20:40:29.987Z,13.95
2019-04-20T20:43:06.108Z,14.03
2019-04-20T20:45:29.594Z,14.11
2019-04-20T20:48:13.844Z,14.20
2019-04-20T20:50:36.381Z,14.12
2019-04-20T20:52:58.685Z,14.13
2019-04-20T20:55:27.177Z,14.15
2019-04-20T20:57:50.818Z,14.18
2019-04-20T21:00:24.133Z,14.21
2019-04-20T21:02:47.702Z,14.23
2019-04-20T21:05:09.334Z,14.15
2019-04-20T21:07:36.562Z,14.08
2019-04-20T21:10:04.459Z,14.05
2019-04-20T21:12:31.117Z,13.99
2019-04-20T21:15:00.411Z,13.94
2019-04-20T21:17:37.488Z,14.02
2019-04-20T21:20:11.447Z,14.05
2019-04-20T21:22:46.580Z,14.08
2019-04-20T21:24:55.058Z,13.99
2019-04-20T21:27:22.272Z,13.85
2019-04-20T21:29:54.263Z,13.86
2019-04-20T21:32:21.412Z,13.77
2019-04-20T21:34:53.595Z,13.74
2019-04-20T21:37:19.381Z,13.61
2019-04-20T21:39:51.832Z,13.56
2019-04-20T21:42:21.307Z,13.43
2019-04-20T21:44:48.671Z,13.44
2019-04-20T21:47:15.651Z,13.44
2019-04-20T21:49:51.621Z,13.36
2019-04-20T21:52:23.208Z,13.39
2019-04-20T21:54:40.192Z,13.36
2019-04-20T21:57:09.506Z,13.49
2019-04-20T21:59:42.679Z,13.57
2019-04-20T22:02:11.605Z,13.55
2019-04-20T22:04:33.514Z,13.60
2019-04-20T22:07:00.453Z,13.50
2019-04-20T22:09:34.476Z,13.39
2019-04-20T22:11:56.120Z,13.31
2019-04-20T22:14:26.180Z,13.32
2019-04-20T22:16:53.813Z,13.35
2019-04-20T22:19:32.030Z,13.41
2019-04-20T22:22:01.049Z,13.39
2019-04-20T22:24:34.056Z,13.27
2019-04-20T22:26:58.313Z,13.14
2019-04-20T22:29:14.329Z,13.13
2019-04-20T22:31:46.114Z,13.21
2019-04-20T22:34:16.868Z,13.19
2019-04-20T22:36:43.342Z,13.22
2019-04-20T22:39:13.654Z,13.18
2019-04-20T22:42:04.677Z,13.22
2019-04-20T22:44:30.173Z,13.20
2019-04-20T22:46:56.297Z,13.20
2019-04-20T22:49:42.016Z,13.22
2019-04-20T22:51:59.577Z,13.28
2019-04-20T22:54:37.955Z,13.25
2019-04-20T22:57:01.038Z,13.16
2019-04-20T22:59:22.606Z,13.19
2019-04-20T23:01:52.071Z,13.15
2019-04-20T23:04:15.012Z,13.05
2019-04-20T23:06:46.276Z,12.91
2019-04-20T23:09:14.657Z,12.78
2019-04-20T23:11:40.480Z,12.65
2019-04-20T23:14:09.085Z,12.16
2019-04-20T23:16:43.311Z,11.66
2019-04-20T23:19:05.154Z,11.17
2019-04-20T23:21:32.207Z,10.68
2019-04-20T23:24:04.976Z,10.45
2019-04-20T23:26:35.905Z,10.22
2019-04-20T23:28:59.033Z,10.08
2019-04-20T23:31:26.704Z,10.07
2019-04-20T23:33:53.944Z,10.07
2019-04-20T23:36:29.215Z,9.93
2019-04-20T23:38:54.167Z,9.70
2019-04-20T23:41:17.907Z,9.63
2019-04-20T23:43:49.200Z,9.58
2019-04-20T23:46:39.167Z,9.53
2019-04-20T23:49:31.017Z,9.54
2019-04-20T23:52:22.655Z,9.53
2019-04-20T23:54:27.900Z,9.55
2019-04-20T23:56:53.588Z,9.55
2019-04-20T23:59:25.240Z,9.48
